Lebanon, OR (97355)

9:07 PM PDT on September 02, 2014 (GMT -0700)
Near Downtown - Grant | Change Station
CLOSE
Current Station
Personal Weather Station
Location: Lebanon, OR
Elevation: 354 ft
Nearby Weather Stations

Elev 354 ft 44.54 °N, 122.90 °W | Updated 4 seconds ago

Clear
Clear
64.4 °F
Feels Like 64.4 °F
N
0.7
Wind Variable Wind from SE
Gusts 3.1 mph

Today
High -- | Low -- °F
--% Chance of Precip.
Yesterday
High -- | Low -- °F
Precip. -- in
6:35 AM 7:46 PM
First Quarter, 58% visible
Pressure 30.00 in
Visibility 10.0 miles
Clouds Clear
Dew Point 54 °F
Humidity 70%
Rainfall 0.00 in
Snow Depth Not available.
UV 0 out of 12
Pollen 3.80 out of 12
Ozone Good
PM2.5 Good
Flu Activity Not available.
METAR KCVO 030355Z AUTO 36005KT 10SM CLR 16/12 A3000 RMK AO1

More Conditions Fewer Conditions

Pressure 30.00 in
Visibility 10.0 miles
Clouds Clear
Dew Point 54 °F
Humidity 70%
Rainfall 0.00 in
Snow Depth Not available.
UV 0 out of 12
Pollen 3.80 out of 12
Ozone Good
PM2.5 Good
Flu Activity Not available.
METAR KCVO 030355Z AUTO 36005KT 10SM CLR 16/12 A3000 RMK AO1

More Conditions Fewer Conditions

10-Day Weather Forecast

Almanac

Astronomy

Sep. 02, 2014 Rise Set
Actual Time 6:35 AM PDT 7:46 PM PDT
Civil Twilight 6:05 AM PDT 8:16 PM PDT
Nautical Twilight 5:29 AM PDT 8:51 PM PDT
Astronomical Twilight 4:51 AM PDT 9:29 PM PDT
Moon 2:42 PM PDT (9/2) No Moon Set
Length of Visible Light 14h 10m
Length of Day
13h 10m
Tomorrow will be 2m 59s shorter.
First Quarter, 58% of the Moon is Illuminated
Sep 3
First Quarter
Sep 8
Full
Sep 15
Last Quarter
Sep 24
New
Oct 1
First Quarter

Today's Extremes

State Highs State Lows

Community

WunderPhotos

Upload Photos

1,749,866 photos uploaded!

Nearby

Air Quality

  Air Quality AQ Index Pollutant
Yesterday Good
PM2.5
Yesterday Good
OZONE
Current Good
PM2.5
Current Good
OZONE
Tuesday Good
PM2.5
Wednesday Good
PM2.5

Snow Depth

Station Depth Elevation
Daly Lake 0 in 3600 ft
Hogg Pass 0 in 4760 ft
Mckenzie 0 in 4800 ft
Peavine Ridge 0 in 3500 ft
Roaring River 0 in 4900 ft

Earthquake Activity

City Distance Mag. Time & Date
No recent earthquake activity has been reported nearby.
Minimum magnitude displayed is 2.5.

Coastal Water Temperatures

Place Temperature
No Stations Reporting

Nearby Weather Stations